sensor_id;sensor_type;location;lat;lon;timestamp;P1;durP1;ratioP1;P2;durP2;ratioP2
36551;SDS011;22559;54.176;12.102;2023-03-23T00:02:06;7.80;;;4.77;;
36551;SDS011;22559;54.176;12.102;2023-03-23T00:04:32;8.37;;;4.70;;
36551;SDS011;22559;54.176;12.102;2023-03-23T00:06:58;5.43;;;4.53;;
36551;SDS011;22559;54.176;12.102;2023-03-23T00:09:27;6.93;;;4.47;;
36551;SDS011;22559;54.176;12.102;2023-03-23T00:11:54;6.40;;;4.40;;
36551;SDS011;22559;54.176;12.102;2023-03-23T00:14:22;7.63;;;4.80;;
36551;SDS011;22559;54.176;12.102;2023-03-23T00:16:48;5.97;;;4.33;;
36551;SDS011;22559;54.176;12.102;2023-03-23T00:19:15;8.73;;;4.33;;
36551;SDS011;22559;54.176;12.102;2023-03-23T00:21:44;4.67;;;4.17;;
36551;SDS011;22559;54.176;12.102;2023-03-23T00:24:17;5.50;;;4.30;;
36551;SDS011;22559;54.176;12.102;2023-03-23T00:26:44;5.00;;;4.50;;
36551;SDS011;22559;54.176;12.102;2023-03-23T00:29:18;9.20;;;4.70;;
36551;SDS011;22559;54.176;12.102;2023-03-23T00:31:46;7.00;;;4.30;;
36551;SDS011;22559;54.176;12.102;2023-03-23T00:34:13;6.03;;;4.93;;
36551;SDS011;22559;54.176;12.102;2023-03-23T00:36:43;6.57;;;4.27;;
36551;SDS011;22559;54.176;12.102;2023-03-23T00:39:10;6.23;;;4.43;;
36551;SDS011;22559;54.176;12.102;2023-03-23T00:41:36;7.33;;;4.43;;
36551;SDS011;22559;54.176;12.102;2023-03-23T00:44:03;8.50;;;4.73;;
36551;SDS011;22559;54.176;12.102;2023-03-23T00:46:29;5.97;;;4.30;;
36551;SDS011;22559;54.176;12.102;2023-03-23T00:48:55;7.23;;;3.63;;
36551;SDS011;22559;54.176;12.102;2023-03-23T00:51:22;6.67;;;3.50;;
36551;SDS011;22559;54.176;12.102;2023-03-23T00:53:48;4.07;;;3.77;;
36551;SDS011;22559;54.176;12.102;2023-03-23T00:56:14;6.37;;;4.33;;
36551;SDS011;22559;54.176;12.102;2023-03-23T00:58:40;4.77;;;4.17;;
36551;SDS011;22559;54.176;12.102;2023-03-23T01:01:06;4.63;;;4.23;;
36551;SDS011;22559;54.176;12.102;2023-03-23T01:03:33;6.37;;;4.20;;
36551;SDS011;22559;54.176;12.102;2023-03-23T01:06:09;5.53;;;4.37;;
36551;SDS011;22559;54.176;12.102;2023-03-23T01:08:38;6.17;;;4.23;;
36551;SDS011;22559;54.176;12.102;2023-03-23T01:11:11;5.80;;;3.80;;
36551;SDS011;22559;54.176;12.102;2023-03-23T01:13:38;4.47;;;3.70;;
36551;SDS011;22559;54.176;12.102;2023-03-23T01:16:06;4.00;;;3.70;;
36551;SDS011;22559;54.176;12.102;2023-03-23T01:18:31;3.53;;;3.23;;
36551;SDS011;22559;54.176;12.102;2023-03-23T01:20:57;3.70;;;3.30;;
36551;SDS011;22559;54.176;12.102;2023-03-23T01:23:23;5.47;;;3.40;;
36551;SDS011;22559;54.176;12.102;2023-03-23T01:25:48;6.07;;;3.40;;
36551;SDS011;22559;54.176;12.102;2023-03-23T01:28:14;3.63;;;3.33;;
36551;SDS011;22559;54.176;12.102;2023-03-23T01:30:40;3.40;;;3.10;;
36551;SDS011;22559;54.176;12.102;2023-03-23T01:33:06;3.70;;;3.40;;
36551;SDS011;22559;54.176;12.102;2023-03-23T01:35:32;3.20;;;2.90;;
36551;SDS011;22559;54.176;12.102;2023-03-23T01:37:57;5.47;;;3.37;;
36551;SDS011;22559;54.176;12.102;2023-03-23T01:40:23;6.00;;;3.47;;
36551;SDS011;22559;54.176;12.102;2023-03-23T01:42:51;5.70;;;3.30;;
36551;SDS011;22559;54.176;12.102;2023-03-23T01:45:21;5.10;;;3.43;;
36551;SDS011;22559;54.176;12.102;2023-03-23T01:48:13;3.33;;;3.10;;
36551;SDS011;22559;54.176;12.102;2023-03-23T01:50:41;3.93;;;3.53;;
36551;SDS011;22559;54.176;12.102;2023-03-23T01:53:15;9.63;;;3.63;;
36551;SDS011;22559;54.176;12.102;2023-03-23T01:55:41;4.37;;;3.47;;
36551;SDS011;22559;54.176;12.102;2023-03-23T01:58:13;4.80;;;4.40;;
36551;SDS011;22559;54.176;12.102;2023-03-23T02:00:39;5.20;;;3.80;;
36551;SDS011;22559;54.176;12.102;2023-03-23T02:03:07;9.63;;;3.83;;
36551;SDS011;22559;54.176;12.102;2023-03-23T02:05:36;5.47;;;4.50;;
36551;SDS011;22559;54.176;12.102;2023-03-23T02:08:04;9.73;;;4.40;;
36551;SDS011;22559;54.176;12.102;2023-03-23T02:10:33;8.33;;;4.47;;
36551;SDS011;22559;54.176;12.102;2023-03-23T02:13:02;7.40;;;4.17;;
36551;SDS011;22559;54.176;12.102;2023-03-23T02:26:51;7.23;;;4.70;;
36551;SDS011;22559;54.176;12.102;2023-03-23T02:35:18;7.13;;;4.63;;
36551;SDS011;22559;54.176;12.102;2023-03-23T02:37:51;8.40;;;5.17;;
36551;SDS011;22559;54.176;12.102;2023-03-23T02:40:40;7.33;;;5.13;;
36551;SDS011;22559;54.176;12.102;2023-03-23T02:43:11;9.37;;;5.53;;
36551;SDS011;22559;54.176;12.102;2023-03-23T02:45:39;8.20;;;5.37;;
36551;SDS011;22559;54.176;12.102;2023-03-23T02:48:07;9.77;;;4.87;;
36551;SDS011;22559;54.176;12.102;2023-03-23T02:50:36;7.77;;;5.03;;
36551;SDS011;22559;54.176;12.102;2023-03-23T02:53:04;9.17;;;5.67;;
36551;SDS011;22559;54.176;12.102;2023-03-23T02:55:33;8.60;;;6.00;;
36551;SDS011;22559;54.176;12.102;2023-03-23T02:57:59;7.20;;;5.23;;
36551;SDS011;22559;54.176;12.102;2023-03-23T03:00:28;11.63;;;6.20;;
36551;SDS011;22559;54.176;12.102;2023-03-23T03:02:54;10.57;;;6.70;;
36551;SDS011;22559;54.176;12.102;2023-03-23T03:08:07;13.03;;;6.30;;
36551;SDS011;22559;54.176;12.102;2023-03-23T03:10:51;10.20;;;6.87;;
36551;SDS011;22559;54.176;12.102;2023-03-23T03:19:02;9.00;;;6.93;;
36551;SDS011;22559;54.176;12.102;2023-03-23T03:21:35;10.87;;;6.73;;
36551;SDS011;22559;54.176;12.102;2023-03-23T03:24:04;15.77;;;7.83;;
36551;SDS011;22559;54.176;12.102;2023-03-23T03:26:36;15.73;;;8.23;;
36551;SDS011;22559;54.176;12.102;2023-03-23T03:29:04;14.17;;;7.80;;
36551;SDS011;22559;54.176;12.102;2023-03-23T03:31:36;14.13;;;7.80;;
36551;SDS011;22559;54.176;12.102;2023-03-23T03:34:04;10.67;;;6.57;;
36551;SDS011;22559;54.176;12.102;2023-03-23T03:36:32;12.90;;;7.60;;
36551;SDS011;22559;54.176;12.102;2023-03-23T03:39:06;10.13;;;7.33;;
36551;SDS011;22559;54.176;12.102;2023-03-23T03:41:35;13.47;;;7.90;;
36551;SDS011;22559;54.176;12.102;2023-03-23T03:44:02;13.90;;;7.27;;
36551;SDS011;22559;54.176;12.102;2023-03-23T03:46:29;13.00;;;7.40;;
36551;SDS011;22559;54.176;12.102;2023-03-23T03:48:56;9.13;;;7.40;;
36551;SDS011;22559;54.176;12.102;2023-03-23T03:51:23;12.17;;;7.37;;
36551;SDS011;22559;54.176;12.102;2023-03-23T03:53:49;11.63;;;7.07;;
36551;SDS011;22559;54.176;12.102;2023-03-23T03:56:15;10.23;;;7.23;;
36551;SDS011;22559;54.176;12.102;2023-03-23T03:58:41;12.60;;;7.13;;
36551;SDS011;22559;54.176;12.102;2023-03-23T04:01:08;10.87;;;7.17;;
36551;SDS011;22559;54.176;12.102;2023-03-23T04:03:38;9.77;;;6.80;;
36551;SDS011;22559;54.176;12.102;2023-03-23T04:06:04;10.23;;;7.33;;
36551;SDS011;22559;54.176;12.102;2023-03-23T04:08:31;12.07;;;7.67;;
36551;SDS011;22559;54.176;12.102;2023-03-23T04:10:57;10.23;;;7.53;;
36551;SDS011;22559;54.176;12.102;2023-03-23T04:13:23;13.70;;;8.13;;
36551;SDS011;22559;54.176;12.102;2023-03-23T04:15:49;12.27;;;7.30;;
36551;SDS011;22559;54.176;12.102;2023-03-23T04:18:15;15.07;;;7.60;;
36551;SDS011;22559;54.176;12.102;2023-03-23T04:20:41;11.93;;;7.60;;
36551;SDS011;22559;54.176;12.102;2023-03-23T04:23:09;11.93;;;8.23;;
36551;SDS011;22559;54.176;12.102;2023-03-23T04:25:35;12.43;;;7.13;;
36551;SDS011;22559;54.176;12.102;2023-03-23T04:28:01;11.30;;;7.60;;
36551;SDS011;22559;54.176;12.102;2023-03-23T04:30:27;10.70;;;7.37;;
36551;SDS011;22559;54.176;12.102;2023-03-23T04:32:55;12.07;;;8.03;;
36551;SDS011;22559;54.176;12.102;2023-03-23T04:35:22;9.20;;;7.13;;
36551;SDS011;22559;54.176;12.102;2023-03-23T04:37:52;9.93;;;7.33;;
36551;SDS011;22559;54.176;12.102;2023-03-23T04:40:19;13.20;;;8.67;;
36551;SDS011;22559;54.176;12.102;2023-03-23T04:42:45;15.40;;;8.63;;
36551;SDS011;22559;54.176;12.102;2023-03-23T04:45:12;13.77;;;10.73;;
36551;SDS011;22559;54.176;12.102;2023-03-23T04:47:39;13.23;;;10.37;;
36551;SDS011;22559;54.176;12.102;2023-03-23T04:50:10;8.23;;;6.80;;
36551;SDS011;22559;54.176;12.102;2023-03-23T04:52:38;13.97;;;8.27;;
36551;SDS011;22559;54.176;12.102;2023-03-23T04:55:05;10.50;;;7.73;;
36551;SDS011;22559;54.176;12.102;2023-03-23T04:57:32;10.90;;;7.33;;
36551;SDS011;22559;54.176;12.102;2023-03-23T04:59:59;13.60;;;8.43;;
36551;SDS011;22559;54.176;12.102;2023-03-23T05:02:25;8.37;;;6.80;;
36551;SDS011;22559;54.176;12.102;2023-03-23T05:04:55;12.43;;;8.30;;
36551;SDS011;22559;54.176;12.102;2023-03-23T05:07:22;13.40;;;8.23;;
36551;SDS011;22559;54.176;12.102;2023-03-23T05:09:48;10.60;;;7.00;;
36551;SDS011;22559;54.176;12.102;2023-03-23T05:12:14;10.17;;;8.10;;
36551;SDS011;22559;54.176;12.102;2023-03-23T05:14:40;13.43;;;8.97;;
36551;SDS011;22559;54.176;12.102;2023-03-23T05:17:06;12.60;;;8.93;;
36551;SDS011;22559;54.176;12.102;2023-03-23T05:19:32;12.17;;;8.53;;
36551;SDS011;22559;54.176;12.102;2023-03-23T05:21:58;11.33;;;7.87;;
36551;SDS011;22559;54.176;12.102;2023-03-23T05:24:28;12.27;;;8.07;;
36551;SDS011;22559;54.176;12.102;2023-03-23T05:26:56;14.17;;;8.57;;
36551;SDS011;22559;54.176;12.102;2023-03-23T05:29:22;11.80;;;9.03;;
36551;SDS011;22559;54.176;12.102;2023-03-23T05:31:48;12.60;;;9.00;;
36551;SDS011;22559;54.176;12.102;2023-03-23T05:34:14;12.57;;;8.67;;
36551;SDS011;22559;54.176;12.102;2023-03-23T05:36:41;12.67;;;8.97;;
36551;SDS011;22559;54.176;12.102;2023-03-23T05:39:09;10.27;;;8.23;;
36551;SDS011;22559;54.176;12.102;2023-03-23T05:41:36;11.57;;;8.70;;
36551;SDS011;22559;54.176;12.102;2023-03-23T05:44:02;12.93;;;8.87;;
36551;SDS011;22559;54.176;12.102;2023-03-23T05:46:28;11.60;;;9.03;;
36551;SDS011;22559;54.176;12.102;2023-03-23T05:48:54;15.63;;;9.17;;
36551;SDS011;22559;54.176;12.102;2023-03-23T05:51:20;15.57;;;9.40;;
36551;SDS011;22559;54.176;12.102;2023-03-23T05:53:45;14.50;;;9.07;;
36551;SDS011;22559;54.176;12.102;2023-03-23T05:56:12;14.03;;;10.13;;
36551;SDS011;22559;54.176;12.102;2023-03-23T05:58:38;16.33;;;9.73;;
36551;SDS011;22559;54.176;12.102;2023-03-23T06:01:06;12.30;;;9.30;;
36551;SDS011;22559;54.176;12.102;2023-03-23T06:03:33;16.57;;;11.23;;
36551;SDS011;22559;54.176;12.102;2023-03-23T06:06:01;15.77;;;10.87;;
36551;SDS011;22559;54.176;12.102;2023-03-23T06:08:27;15.60;;;9.53;;
36551;SDS011;22559;54.176;12.102;2023-03-23T06:10:53;14.70;;;10.47;;
36551;SDS011;22559;54.176;12.102;2023-03-23T06:13:20;14.47;;;10.93;;
36551;SDS011;22559;54.176;12.102;2023-03-23T06:15:46;13.17;;;9.23;;
36551;SDS011;22559;54.176;12.102;2023-03-23T06:18:12;14.50;;;9.07;;
36551;SDS011;22559;54.176;12.102;2023-03-23T06:20:38;16.33;;;9.63;;
36551;SDS011;22559;54.176;12.102;2023-03-23T06:23:05;14.63;;;9.60;;
36551;SDS011;22559;54.176;12.102;2023-03-23T06:25:31;14.83;;;9.97;;
36551;SDS011;22559;54.176;12.102;2023-03-23T06:27:58;12.90;;;9.57;;
36551;SDS011;22559;54.176;12.102;2023-03-23T06:30:24;13.87;;;9.83;;
36551;SDS011;22559;54.176;12.102;2023-03-23T06:32:51;13.70;;;9.00;;
36551;SDS011;22559;54.176;12.102;2023-03-23T06:35:18;13.80;;;9.23;;
36551;SDS011;22559;54.176;12.102;2023-03-23T06:37:44;12.53;;;9.13;;
36551;SDS011;22559;54.176;12.102;2023-03-23T06:40:10;11.87;;;10.00;;
36551;SDS011;22559;54.176;12.102;2023-03-23T06:42:36;13.33;;;9.97;;
36551;SDS011;22559;54.176;12.102;2023-03-23T06:45:02;13.10;;;9.90;;
36551;SDS011;22559;54.176;12.102;2023-03-23T06:47:29;11.73;;;8.83;;
36551;SDS011;22559;54.176;12.102;2023-03-23T06:49:55;13.33;;;10.07;;
36551;SDS011;22559;54.176;12.102;2023-03-23T06:52:22;13.30;;;8.80;;
36551;SDS011;22559;54.176;12.102;2023-03-23T06:54:48;13.57;;;9.60;;
36551;SDS011;22559;54.176;12.102;2023-03-23T06:57:15;13.37;;;9.67;;
36551;SDS011;22559;54.176;12.102;2023-03-23T06:59:42;13.77;;;9.43;;
36551;SDS011;22559;54.176;12.102;2023-03-23T07:02:08;14.23;;;9.03;;
36551;SDS011;22559;54.176;12.102;2023-03-23T07:04:39;10.50;;;8.67;;
36551;SDS011;22559;54.176;12.102;2023-03-23T07:07:05;11.70;;;9.17;;
36551;SDS011;22559;54.176;12.102;2023-03-23T07:09:33;14.17;;;8.90;;
36551;SDS011;22559;54.176;12.102;2023-03-23T07:11:59;14.90;;;10.43;;
36551;SDS011;22559;54.176;12.102;2023-03-23T07:14:25;12.13;;;8.80;;
36551;SDS011;22559;54.176;12.102;2023-03-23T07:16:51;11.40;;;8.63;;
36551;SDS011;22559;54.176;12.102;2023-03-23T07:19:18;9.97;;;7.87;;
36551;SDS011;22559;54.176;12.102;2023-03-23T07:21:44;10.73;;;8.63;;
36551;SDS011;22559;54.176;12.102;2023-03-23T07:24:10;11.33;;;9.00;;
36551;SDS011;22559;54.176;12.102;2023-03-23T07:26:39;10.80;;;8.50;;
36551;SDS011;22559;54.176;12.102;2023-03-23T07:29:08;9.47;;;7.60;;
36551;SDS011;22559;54.176;12.102;2023-03-23T07:31:34;9.30;;;6.87;;
36551;SDS011;22559;54.176;12.102;2023-03-23T07:34:00;10.80;;;7.93;;
36551;SDS011;22559;54.176;12.102;2023-03-23T07:36:28;8.60;;;7.47;;
36551;SDS011;22559;54.176;12.102;2023-03-23T07:38:54;9.57;;;7.07;;
36551;SDS011;22559;54.176;12.102;2023-03-23T07:41:20;10.60;;;7.70;;
36551;SDS011;22559;54.176;12.102;2023-03-23T07:43:45;10.70;;;7.17;;
36551;SDS011;22559;54.176;12.102;2023-03-23T07:46:11;7.43;;;6.63;;
36551;SDS011;22559;54.176;12.102;2023-03-23T07:48:37;9.10;;;6.47;;
36551;SDS011;22559;54.176;12.102;2023-03-23T07:51:04;8.37;;;6.93;;
36551;SDS011;22559;54.176;12.102;2023-03-23T07:53:30;7.77;;;6.90;;
36551;SDS011;22559;54.176;12.102;2023-03-23T07:55:56;6.23;;;5.70;;
36551;SDS011;22559;54.176;12.102;2023-03-23T07:58:22;8.27;;;6.23;;
36551;SDS011;22559;54.176;12.102;2023-03-23T08:00:47;9.63;;;6.50;;
36551;SDS011;22559;54.176;12.102;2023-03-23T08:03:14;6.17;;;5.40;;
36551;SDS011;22559;54.176;12.102;2023-03-23T08:05:41;6.67;;;5.13;;
36551;SDS011;22559;54.176;12.102;2023-03-23T08:08:07;6.43;;;4.83;;
36551;SDS011;22559;54.176;12.102;2023-03-23T08:10:34;7.77;;;4.97;;
36551;SDS011;22559;54.176;12.102;2023-03-23T08:13:00;6.73;;;5.27;;
36551;SDS011;22559;54.176;12.102;2023-03-23T08:15:26;6.10;;;5.40;;
36551;SDS011;22559;54.176;12.102;2023-03-23T08:17:53;6.07;;;5.47;;
36551;SDS011;22559;54.176;12.102;2023-03-23T08:20:20;5.93;;;4.83;;
36551;SDS011;22559;54.176;12.102;2023-03-23T08:22:52;5.73;;;4.60;;
36551;SDS011;22559;54.176;12.102;2023-03-23T08:25:20;5.23;;;4.47;;
36551;SDS011;22559;54.176;12.102;2023-03-23T08:27:46;7.57;;;5.40;;
36551;SDS011;22559;54.176;12.102;2023-03-23T08:30:14;6.10;;;4.83;;
36551;SDS011;22559;54.176;12.102;2023-03-23T08:32:42;4.43;;;4.03;;
36551;SDS011;22559;54.176;12.102;2023-03-23T08:35:09;7.60;;;4.40;;
36551;SDS011;22559;54.176;12.102;2023-03-23T08:37:36;4.07;;;3.73;;
36551;SDS011;22559;54.176;12.102;2023-03-23T08:40:03;5.93;;;3.63;;
36551;SDS011;22559;54.176;12.102;2023-03-23T08:42:36;4.13;;;3.80;;
36551;SDS011;22559;54.176;12.102;2023-03-23T08:45:04;4.40;;;4.00;;
36551;SDS011;22559;54.176;12.102;2023-03-23T08:47:31;3.73;;;3.40;;
36551;SDS011;22559;54.176;12.102;2023-03-23T08:49:58;3.53;;;3.23;;
36551;SDS011;22559;54.176;12.102;2023-03-23T08:52:23;3.63;;;3.20;;
36551;SDS011;22559;54.176;12.102;2023-03-23T08:54:49;4.30;;;3.03;;
36551;SDS011;22559;54.176;12.102;2023-03-23T08:57:15;3.77;;;3.47;;
36551;SDS011;22559;54.176;12.102;2023-03-23T08:59:41;3.30;;;3.00;;
36551;SDS011;22559;54.176;12.102;2023-03-23T09:02:09;3.77;;;3.20;;
36551;SDS011;22559;54.176;12.102;2023-03-23T09:04:35;4.23;;;3.50;;
36551;SDS011;22559;54.176;12.102;2023-03-23T09:07:01;4.90;;;3.80;;
36551;SDS011;22559;54.176;12.102;2023-03-23T09:09:27;4.63;;;3.80;;
36551;SDS011;22559;54.176;12.102;2023-03-23T09:11:53;3.27;;;2.97;;
36551;SDS011;22559;54.176;12.102;2023-03-23T09:14:19;3.20;;;2.90;;
36551;SDS011;22559;54.176;12.102;2023-03-23T09:16:45;4.13;;;3.20;;
36551;SDS011;22559;54.176;12.102;2023-03-23T09:19:10;6.03;;;3.30;;
36551;SDS011;22559;54.176;12.102;2023-03-23T09:21:37;3.50;;;3.20;;
36551;SDS011;22559;54.176;12.102;2023-03-23T09:24:03;4.97;;;3.83;;
36551;SDS011;22559;54.176;12.102;2023-03-23T09:26:30;4.70;;;3.80;;
36551;SDS011;22559;54.176;12.102;2023-03-23T09:28:56;5.17;;;3.50;;
36551;SDS011;22559;54.176;12.102;2023-03-23T09:31:22;3.37;;;3.10;;
36551;SDS011;22559;54.176;12.102;2023-03-23T09:33:51;5.53;;;3.50;;
36551;SDS011;22559;54.176;12.102;2023-03-23T09:36:21;5.03;;;2.97;;
36551;SDS011;22559;54.176;12.102;2023-03-23T09:38:47;6.63;;;3.70;;
36551;SDS011;22559;54.176;12.102;2023-03-23T09:46:52;5.43;;;3.37;;
36551;SDS011;22559;54.176;12.102;2023-03-23T09:49:37;4.47;;;3.70;;
36551;SDS011;22559;54.176;12.102;2023-03-23T09:52:14;3.50;;;2.83;;
36551;SDS011;22559;54.176;12.102;2023-03-23T09:54:43;4.07;;;2.87;;
36551;SDS011;22559;54.176;12.102;2023-03-23T09:57:28;4.73;;;3.67;;
36551;SDS011;22559;54.176;12.102;2023-03-23T10:00:24;3.17;;;2.80;;
36551;SDS011;22559;54.176;12.102;2023-03-23T10:03:15;4.53;;;3.10;;
36551;SDS011;22559;54.176;12.102;2023-03-23T10:05:50;2.70;;;2.50;;
36551;SDS011;22559;54.176;12.102;2023-03-23T10:08:18;4.17;;;2.73;;
36551;SDS011;22559;54.176;12.102;2023-03-23T10:11:00;6.50;;;3.00;;
36551;SDS011;22559;54.176;12.102;2023-03-23T10:15:58;6.67;;;2.37;;
36551;SDS011;22559;54.176;12.102;2023-03-23T10:20:57;3.83;;;1.90;;
36551;SDS011;22559;54.176;12.102;2023-03-23T10:28:37;4.53;;;1.93;;
36551;SDS011;22559;54.176;12.102;2023-03-23T10:31:08;1.67;;;1.57;;
36551;SDS011;22559;54.176;12.102;2023-03-23T10:33:42;3.07;;;1.80;;
36551;SDS011;22559;54.176;12.102;2023-03-23T10:41:43;3.63;;;1.53;;
36551;SDS011;22559;54.176;12.102;2023-03-23T10:44:09;4.77;;;1.77;;
36551;SDS011;22559;54.176;12.102;2023-03-23T10:49:25;11.97;;;5.17;;
36551;SDS011;22559;54.176;12.102;2023-03-23T10:51:59;17.57;;;8.47;;
36551;SDS011;22559;54.176;12.102;2023-03-23T10:54:37;2.73;;;1.90;;
36551;SDS011;22559;54.176;12.102;2023-03-23T10:57:22;8.37;;;3.80;;
36551;SDS011;22559;54.176;12.102;2023-03-23T11:02:26;4.40;;;3.67;;
36551;SDS011;22559;54.176;12.102;2023-03-23T11:04:58;3.47;;;1.80;;
36551;SDS011;22559;54.176;12.102;2023-03-23T11:07:27;2.67;;;2.27;;
36551;SDS011;22559;54.176;12.102;2023-03-23T11:09:55;5.27;;;2.20;;
36551;SDS011;22559;54.176;12.102;2023-03-23T11:12:23;4.57;;;1.90;;
36551;SDS011;22559;54.176;12.102;2023-03-23T11:14:49;6.17;;;2.00;;
36551;SDS011;22559;54.176;12.102;2023-03-23T11:17:24;3.50;;;1.60;;
36551;SDS011;22559;54.176;12.102;2023-03-23T11:19:51;3.93;;;1.90;;
36551;SDS011;22559;54.176;12.102;2023-03-23T11:25:04;6.10;;;2.17;;
36551;SDS011;22559;54.176;12.102;2023-03-23T11:27:30;2.17;;;1.70;;
36551;SDS011;22559;54.176;12.102;2023-03-23T11:30:08;3.80;;;1.87;;
36551;SDS011;22559;54.176;12.102;2023-03-23T11:32:37;4.83;;;1.80;;
36551;SDS011;22559;54.176;12.102;2023-03-23T11:35:17;3.13;;;1.77;;
36551;SDS011;22559;54.176;12.102;2023-03-23T11:37:49;5.07;;;2.00;;
36551;SDS011;22559;54.176;12.102;2023-03-23T11:40:21;2.00;;;1.67;;
36551;SDS011;22559;54.176;12.102;2023-03-23T11:45:35;5.33;;;2.20;;
36551;SDS011;22559;54.176;12.102;2023-03-23T11:51:00;4.97;;;2.27;;
36551;SDS011;22559;54.176;12.102;2023-03-23T11:53:40;2.90;;;1.63;;
36551;SDS011;22559;54.176;12.102;2023-03-23T11:58:41;4.03;;;1.80;;
36551;SDS011;22559;54.176;12.102;2023-03-23T12:06:28;4.93;;;2.50;;
36551;SDS011;22559;54.176;12.102;2023-03-23T12:12:33;2.47;;;1.70;;
36551;SDS011;22559;54.176;12.102;2023-03-23T12:15:22;4.10;;;3.47;;
36551;SDS011;22559;54.176;12.102;2023-03-23T12:21:01;8.43;;;2.33;;
36551;SDS011;22559;54.176;12.102;2023-03-23T12:26:12;3.77;;;1.90;;
36551;SDS011;22559;54.176;12.102;2023-03-23T12:31:33;4.97;;;2.20;;
36551;SDS011;22559;54.176;12.102;2023-03-23T12:34:10;6.10;;;2.70;;
36551;SDS011;22559;54.176;12.102;2023-03-23T12:40:28;4.83;;;1.93;;
36551;SDS011;22559;54.176;12.102;2023-03-23T12:42:40;5.53;;;2.10;;
36551;SDS011;22559;54.176;12.102;2023-03-23T12:48:06;7.53;;;2.40;;
36551;SDS011;22559;54.176;12.102;2023-03-23T12:50:44;6.00;;;2.23;;
36551;SDS011;22559;54.176;12.102;2023-03-23T12:53:33;3.40;;;2.20;;
36551;SDS011;22559;54.176;12.102;2023-03-23T12:58:49;6.07;;;3.17;;
36551;SDS011;22559;54.176;12.102;2023-03-23T13:06:36;7.43;;;2.90;;
36551;SDS011;22559;54.176;12.102;2023-03-23T13:11:42;7.40;;;2.90;;
36551;SDS011;22559;54.176;12.102;2023-03-23T13:17:22;6.47;;;2.20;;
36551;SDS011;22559;54.176;12.102;2023-03-23T13:23:05;4.20;;;2.27;;
36551;SDS011;22559;54.176;12.102;2023-03-23T13:28:04;5.37;;;2.43;;
36551;SDS011;22559;54.176;12.102;2023-03-23T13:30:30;6.43;;;2.60;;
36551;SDS011;22559;54.176;12.102;2023-03-23T13:33:05;9.00;;;2.73;;
36551;SDS011;22559;54.176;12.102;2023-03-23T13:35:36;10.17;;;2.43;;
36551;SDS011;22559;54.176;12.102;2023-03-23T13:38:11;6.90;;;2.83;;
36551;SDS011;22559;54.176;12.102;2023-03-23T13:40:55;5.90;;;2.60;;
36551;SDS011;22559;54.176;12.102;2023-03-23T13:43:33;3.97;;;2.20;;
36551;SDS011;22559;54.176;12.102;2023-03-23T13:49:02;7.87;;;2.50;;
36551;SDS011;22559;54.176;12.102;2023-03-23T13:51:36;5.53;;;2.63;;
36551;SDS011;22559;54.176;12.102;2023-03-23T14:03:00;7.20;;;2.37;;
36551;SDS011;22559;54.176;12.102;2023-03-23T14:08:24;7.63;;;2.20;;
36551;SDS011;22559;54.176;12.102;2023-03-23T14:10:59;8.93;;;3.23;;
36551;SDS011;22559;54.176;12.102;2023-03-23T14:16:22;7.53;;;2.57;;
36551;SDS011;22559;54.176;12.102;2023-03-23T14:18:59;7.43;;;2.80;;
36551;SDS011;22559;54.176;12.102;2023-03-23T14:24:02;7.23;;;2.87;;
36551;SDS011;22559;54.176;12.102;2023-03-23T14:26:32;6.63;;;2.50;;
36551;SDS011;22559;54.176;12.102;2023-03-23T14:28:59;5.67;;;2.67;;
36551;SDS011;22559;54.176;12.102;2023-03-23T14:31:26;5.47;;;2.60;;
36551;SDS011;22559;54.176;12.102;2023-03-23T14:33:53;7.37;;;2.50;;
36551;SDS011;22559;54.176;12.102;2023-03-23T14:36:25;4.57;;;2.70;;
36551;SDS011;22559;54.176;12.102;2023-03-23T14:39:00;7.30;;;2.13;;
36551;SDS011;22559;54.176;12.102;2023-03-23T14:41:36;7.63;;;2.83;;
36551;SDS011;22559;54.176;12.102;2023-03-23T14:44:03;7.95;;;2.42;;
36551;SDS011;22559;54.176;12.102;2023-03-23T14:46:31;7.95;;;2.45;;
36551;SDS011;22559;54.176;12.102;2023-03-23T14:48:59;6.60;;;2.60;;
36551;SDS011;22559;54.176;12.102;2023-03-23T14:51:29;6.93;;;3.28;;
36551;SDS011;22559;54.176;12.102;2023-03-23T14:53:55;7.65;;;2.80;;
36551;SDS011;22559;54.176;12.102;2023-03-23T14:56:30;7.40;;;2.67;;
36551;SDS011;22559;54.176;12.102;2023-03-23T14:59:02;9.20;;;3.90;;
36551;SDS011;22559;54.176;12.102;2023-03-23T15:01:31;7.13;;;2.63;;
36551;SDS011;22559;54.176;12.102;2023-03-23T15:04:01;8.23;;;2.63;;
36551;SDS011;22559;54.176;12.102;2023-03-23T15:06:43;5.63;;;2.83;;
36551;SDS011;22559;54.176;12.102;2023-03-23T15:09:38;7.97;;;3.10;;
36551;SDS011;22559;54.176;12.102;2023-03-23T15:12:06;11.90;;;3.63;;
36551;SDS011;22559;54.176;12.102;2023-03-23T15:14:42;7.93;;;2.40;;
36551;SDS011;22559;54.176;12.102;2023-03-23T15:17:18;6.77;;;2.70;;
36551;SDS011;22559;54.176;12.102;2023-03-23T15:19:49;8.93;;;3.43;;
36551;SDS011;22559;54.176;12.102;2023-03-23T15:24:48;7.50;;;2.67;;
36551;SDS011;22559;54.176;12.102;2023-03-23T15:27:16;9.73;;;3.27;;
36551;SDS011;22559;54.176;12.102;2023-03-23T15:29:50;8.83;;;3.30;;
36551;SDS011;22559;54.176;12.102;2023-03-23T15:32:23;8.13;;;3.43;;
36551;SDS011;22559;54.176;12.102;2023-03-23T15:34:51;9.03;;;2.70;;
36551;SDS011;22559;54.176;12.102;2023-03-23T15:37:23;7.47;;;3.77;;
36551;SDS011;22559;54.176;12.102;2023-03-23T15:39:53;6.53;;;3.00;;
36551;SDS011;22559;54.176;12.102;2023-03-23T15:42:25;8.93;;;3.60;;
36551;SDS011;22559;54.176;12.102;2023-03-23T15:44:58;7.60;;;2.90;;
36551;SDS011;22559;54.176;12.102;2023-03-23T15:47:35;8.50;;;3.73;;
36551;SDS011;22559;54.176;12.102;2023-03-23T15:52:38;10.13;;;3.00;;
36551;SDS011;22559;54.176;12.102;2023-03-23T15:55:50;8.23;;;2.63;;
36551;SDS011;22559;54.176;12.102;2023-03-23T15:57:53;7.17;;;2.70;;
36551;SDS011;22559;54.176;12.102;2023-03-23T16:00:21;8.67;;;3.03;;
36551;SDS011;22559;54.176;12.102;2023-03-23T16:02:49;8.20;;;2.70;;
36551;SDS011;22559;54.176;12.102;2023-03-23T16:05:24;10.27;;;3.13;;
36551;SDS011;22559;54.176;12.102;2023-03-23T16:07:51;9.27;;;3.03;;
36551;SDS011;22559;54.176;12.102;2023-03-23T16:10:18;7.00;;;2.87;;
36551;SDS011;22559;54.176;12.102;2023-03-23T16:12:45;5.43;;;2.53;;
36551;SDS011;22559;54.176;12.102;2023-03-23T16:15:14;8.57;;;2.73;;
36551;SDS011;22559;54.176;12.102;2023-03-23T16:17:40;9.10;;;3.33;;
36551;SDS011;22559;54.176;12.102;2023-03-23T16:20:13;4.50;;;2.63;;
36551;SDS011;22559;54.176;12.102;2023-03-23T16:22:46;6.43;;;2.80;;
36551;SDS011;22559;54.176;12.102;2023-03-23T16:25:12;9.43;;;3.13;;
36551;SDS011;22559;54.176;12.102;2023-03-23T16:27:39;8.90;;;3.23;;
36551;SDS011;22559;54.176;12.102;2023-03-23T16:30:12;2.80;;;1.90;;
36551;SDS011;22559;54.176;12.102;2023-03-23T16:32:40;4.20;;;1.97;;
36551;SDS011;22559;54.176;12.102;2023-03-23T16:35:05;7.10;;;2.30;;
36551;SDS011;22559;54.176;12.102;2023-03-23T16:37:31;2.47;;;1.87;;
36551;SDS011;22559;54.176;12.102;2023-03-23T16:39:58;3.33;;;1.73;;
36551;SDS011;22559;54.176;12.102;2023-03-23T16:42:25;2.30;;;1.60;;
36551;SDS011;22559;54.176;12.102;2023-03-23T16:44:50;2.30;;;1.40;;
36551;SDS011;22559;54.176;12.102;2023-03-23T16:47:18;2.00;;;1.70;;
36551;SDS011;22559;54.176;12.102;2023-03-23T16:49:47;4.93;;;2.00;;
36551;SDS011;22559;54.176;12.102;2023-03-23T16:52:13;4.90;;;1.83;;
36551;SDS011;22559;54.176;12.102;2023-03-23T16:54:38;1.90;;;1.80;;